createdAt,value
2019-04-06T00:01:08.336Z,8.10
2019-04-06T00:03:09.735Z,8.10
2019-04-06T00:05:11.668Z,8.10
2019-04-06T00:07:12.991Z,8.20
2019-04-06T00:09:14.422Z,8.20
2019-04-06T00:11:15.812Z,8.20
2019-04-06T00:13:17.453Z,8.20
2019-04-06T00:15:19.103Z,8.10
2019-04-06T00:17:20.851Z,8.20
2019-04-06T00:19:22.288Z,8.20
2019-04-06T00:21:23.677Z,8.20
2019-04-06T00:23:25.097Z,8.30
2019-04-06T00:25:26.535Z,8.30
2019-04-06T00:27:27.952Z,8.30
2019-04-06T00:29:29.757Z,8.20
2019-04-06T00:31:36.136Z,8.30
2019-04-06T00:33:37.509Z,8.20
2019-04-06T00:35:41.277Z,8.20
2019-04-06T00:37:42.556Z,8.20
2019-04-06T00:39:43.706Z,8.20
2019-04-06T00:41:45.248Z,8.20
2019-04-06T00:43:46.376Z,8.20
2019-04-06T00:45:47.631Z,8.20
2019-04-06T00:47:48.767Z,8.20
2019-04-06T00:49:50.057Z,8.10
2019-04-06T00:51:54.139Z,8.10
2019-04-06T00:53:55.291Z,8.20
2019-04-06T00:55:56.508Z,8.20
2019-04-06T00:57:57.672Z,8.20
2019-04-06T00:59:58.813Z,8.10
2019-04-06T01:01:59.971Z,8.20
2019-04-06T01:04:01.465Z,8.10
2019-04-06T01:06:02.817Z,8.20
2019-04-06T01:08:04.230Z,8.20
2019-04-06T01:10:05.927Z,8.10
2019-04-06T01:12:27.037Z,8.10
2019-04-06T01:14:28.176Z,8.20
2019-04-06T01:16:29.634Z,8.10
2019-04-06T01:18:30.783Z,8.20
2019-04-06T01:20:31.927Z,8.10
2019-04-06T01:22:33.326Z,8.10
2019-04-06T01:24:34.495Z,8.10
2019-04-06T01:26:35.726Z,8.10
2019-04-06T01:28:36.860Z,8.20
2019-04-06T01:30:38.010Z,8.10
2019-04-06T01:32:39.435Z,8.10
2019-04-06T01:34:40.663Z,8.20
2019-04-06T01:36:41.834Z,8.10
2019-04-06T01:38:43.143Z,8.10
2019-04-06T01:40:44.291Z,8.10
2019-04-06T01:42:45.524Z,8.10
2019-04-06T01:44:46.672Z,8.10
2019-04-06T01:46:47.817Z,8.20
2019-04-06T01:48:49.077Z,8.10
2019-04-06T01:50:50.897Z,8.10
2019-04-06T01:52:52.435Z,8.20
2019-04-06T01:54:54.868Z,8.20
2019-04-06T01:56:56.257Z,8.20
2019-04-06T01:58:58.221Z,8.20
2019-04-06T02:01:18.609Z,8.20
2019-04-06T02:03:20.023Z,8.20
2019-04-06T02:05:21.411Z,8.20
2019-04-06T02:07:22.805Z,8.20
2019-04-06T02:09:24.192Z,8.20
2019-04-06T02:11:29.856Z,8.20
2019-04-06T02:13:35.403Z,8.20
2019-04-06T02:15:38.080Z,8.10
2019-04-06T02:17:39.353Z,8.10
2019-04-06T02:19:40.985Z,8.10
2019-04-06T02:21:42.130Z,8.10
2019-04-06T02:23:43.368Z,8.20
2019-04-06T02:25:44.514Z,8.10
2019-04-06T02:27:45.653Z,8.20
2019-04-06T02:29:48.695Z,8.20
2019-04-06T02:32:09.653Z,8.20
2019-04-06T02:34:29.245Z,8.20
2019-04-06T02:36:41.602Z,8.20
2019-04-06T02:38:47.401Z,8.20
2019-04-06T02:41:07.494Z,8.20
2019-04-06T02:43:16.571Z,8.20
2019-04-06T02:45:17.936Z,8.20
2019-04-06T02:47:19.124Z,8.20
2019-04-06T02:49:20.270Z,8.20
2019-04-06T02:51:21.565Z,8.10
2019-04-06T02:53:22.758Z,8.20
2019-04-06T02:55:23.987Z,8.10
2019-04-06T02:57:25.143Z,8.10
2019-04-06T02:59:26.377Z,8.10
2019-04-06T03:01:27.541Z,8.10
2019-04-06T03:03:28.846Z,8.10
2019-04-06T03:05:30.098Z,8.10
2019-04-06T03:07:31.355Z,8.10
2019-04-06T03:09:32.687Z,8.10
2019-04-06T03:11:33.842Z,8.10
2019-04-06T03:13:35.004Z,8.10
2019-04-06T03:15:36.238Z,8.10
2019-04-06T03:17:37.670Z,8.10
2019-04-06T03:19:38.982Z,8.10
2019-04-06T03:21:40.247Z,8.20
2019-04-06T03:23:50.450Z,8.20
2019-04-06T03:25:44.566Z,8.20
2019-04-06T03:27:45.822Z,8.20
2019-04-06T03:29:57.238Z,8.20
2019-04-06T03:31:50.447Z,8.20
2019-04-06T03:33:51.595Z,8.10
2019-04-06T03:35:53.223Z,8.10
2019-04-06T03:37:54.378Z,8.20
2019-04-06T03:39:55.770Z,8.20
2019-04-06T03:41:57.536Z,8.20
2019-04-06T03:43:59.164Z,8.20
2019-04-06T03:46:00.575Z,8.20
2019-04-06T03:48:02.631Z,8.20
2019-04-06T03:50:06.387Z,8.20
2019-04-06T03:52:07.814Z,8.20
2019-04-06T03:54:09.650Z,8.20
2019-04-06T03:56:31.323Z,8.20
2019-04-06T03:58:32.810Z,8.20
2019-04-06T04:00:34.217Z,8.20
2019-04-06T04:02:35.673Z,8.20
2019-04-06T04:04:37.062Z,8.20
2019-04-06T04:06:38.872Z,8.10
2019-04-06T04:08:40.384Z,8.20
2019-04-06T04:10:41.919Z,8.20
2019-04-06T04:12:43.078Z,8.20
2019-04-06T04:14:44.497Z,8.20
2019-04-06T04:16:45.760Z,8.20
2019-04-06T04:18:46.898Z,8.10
2019-04-06T04:22:53.534Z,8.20
2019-04-06T04:24:54.963Z,8.20
2019-04-06T04:26:56.144Z,8.20
2019-04-06T04:28:57.281Z,8.20
2019-04-06T04:30:58.568Z,8.20
2019-04-06T04:32:59.898Z,8.20
2019-04-06T04:35:01.122Z,8.10
2019-04-06T04:37:02.342Z,8.20
2019-04-06T04:39:05.311Z,8.20
2019-04-06T04:41:06.447Z,8.20
2019-04-06T04:43:07.597Z,8.20
2019-04-06T04:45:08.813Z,8.20
2019-04-06T04:47:09.998Z,8.20
2019-04-06T04:49:11.139Z,8.20
2019-04-06T04:51:12.305Z,8.20
2019-04-06T04:53:13.445Z,8.20
2019-04-06T04:55:14.744Z,8.30
2019-04-06T04:57:16.019Z,8.20
2019-04-06T04:59:17.248Z,8.20
2019-04-06T05:01:18.531Z,8.20
2019-04-06T05:03:20.140Z,8.20
2019-04-06T05:05:21.275Z,8.20
2019-04-06T05:07:22.517Z,8.20
2019-04-06T05:09:23.656Z,8.30
2019-04-06T05:11:24.835Z,8.30
2019-04-06T05:13:26.043Z,8.30
2019-04-06T05:15:49.298Z,8.20
2019-04-06T05:17:50.482Z,8.30
2019-04-06T05:19:51.700Z,8.30
2019-04-06T05:21:52.849Z,8.30
2019-04-06T05:23:54.127Z,8.30
2019-04-06T05:25:55.353Z,8.30
2019-04-06T05:27:56.757Z,8.40
2019-04-06T05:29:57.911Z,8.40
2019-04-06T05:31:59.055Z,8.40
2019-04-06T05:34:00.469Z,8.40
2019-04-06T05:36:01.765Z,8.40
2019-04-06T05:38:02.901Z,8.40
2019-04-06T05:40:04.289Z,8.50
2019-04-06T05:42:05.688Z,8.40
2019-04-06T05:44:06.846Z,8.40
2019-04-06T05:46:08.383Z,8.50
2019-04-06T05:48:09.533Z,8.50
2019-04-06T05:50:10.796Z,8.50
2019-04-06T05:52:12.559Z,8.50
2019-04-06T05:54:13.769Z,8.60
2019-04-06T05:56:14.942Z,8.60
2019-04-06T05:58:16.554Z,8.60
2019-04-06T06:00:17.641Z,8.60
2019-04-06T06:02:19.045Z,8.60
2019-04-06T06:04:20.328Z,8.70
2019-04-06T06:06:21.481Z,8.70
2019-04-06T06:08:22.725Z,8.80
2019-04-06T06:10:23.947Z,8.80
2019-04-06T06:12:25.100Z,8.80
2019-04-06T06:14:26.456Z,8.90
2019-04-06T06:16:27.703Z,9.00
2019-04-06T06:18:28.933Z,8.90
2019-04-06T06:20:30.266Z,9.00
2019-04-06T06:22:31.503Z,9.00
2019-04-06T06:24:34.715Z,9.00
2019-04-06T06:26:35.779Z,9.00
2019-04-06T06:28:37.052Z,9.10
2019-04-06T06:30:38.254Z,9.10
2019-04-06T06:32:39.390Z,9.20
2019-04-06T06:34:40.547Z,9.20
2019-04-06T06:36:41.696Z,9.20
2019-04-06T06:38:42.846Z,9.30
2019-04-06T06:40:43.985Z,9.30
2019-04-06T06:42:45.156Z,9.40
2019-04-06T06:44:46.404Z,9.50
2019-04-06T06:46:47.768Z,9.50
2019-04-06T06:48:49.638Z,9.60
2019-04-06T06:50:50.974Z,9.70
2019-04-06T06:52:52.214Z,9.80
2019-04-06T06:54:53.425Z,9.80
2019-04-06T06:56:54.658Z,9.90
2019-04-06T06:58:55.807Z,10.00
2019-04-06T07:00:56.958Z,10.00
2019-04-06T07:02:58.178Z,10.10
2019-04-06T07:04:59.731Z,10.10
2019-04-06T07:07:00.885Z,10.30
2019-04-06T07:09:05.203Z,10.20
2019-04-06T07:11:06.512Z,10.30
2019-04-06T07:13:07.775Z,10.40
2019-04-06T07:15:09.242Z,10.50
2019-04-06T07:17:10.563Z,10.60
2019-04-06T07:19:11.759Z,10.70
2019-04-06T07:21:13.043Z,10.70
2019-04-06T07:23:14.516Z,10.80
2019-04-06T07:25:15.781Z,10.80
2019-04-06T07:27:17.011Z,10.80
2019-04-06T07:29:18.225Z,10.80
2019-04-06T07:31:19.409Z,10.80
2019-04-06T07:33:20.820Z,10.80
2019-04-06T07:35:22.058Z,10.90
2019-04-06T07:37:23.198Z,10.80
2019-04-06T07:39:24.644Z,11.00
2019-04-06T07:41:25.975Z,11.00
2019-04-06T07:43:27.230Z,11.00
2019-04-06T07:45:28.427Z,11.00
2019-04-06T07:47:29.578Z,11.00
2019-04-06T07:49:30.762Z,11.00
2019-04-06T07:51:31.981Z,11.00
2019-04-06T07:53:33.435Z,11.00
2019-04-06T07:55:35.130Z,11.20
2019-04-06T07:57:36.650Z,11.10
2019-04-06T07:59:37.895Z,11.20
2019-04-06T08:01:39.312Z,11.30
2019-04-06T08:03:41.129Z,11.40
2019-04-06T08:05:42.558Z,11.50
2019-04-06T08:07:44.187Z,11.40
2019-04-06T08:09:45.776Z,11.50
2019-04-06T08:11:46.970Z,11.50
2019-04-06T08:13:48.218Z,11.50
2019-04-06T08:15:49.972Z,11.60
2019-04-06T08:17:51.390Z,11.60
2019-04-06T08:19:52.737Z,11.60
2019-04-06T08:21:54.093Z,11.70
2019-04-06T08:23:55.237Z,11.70
2019-04-06T08:25:56.430Z,11.70
2019-04-06T08:27:57.706Z,11.70
2019-04-06T08:29:58.908Z,11.80
2019-04-06T08:32:00.391Z,11.80
2019-04-06T08:34:01.537Z,11.80
2019-04-06T08:36:02.782Z,11.90
2019-04-06T08:38:04.208Z,11.80
2019-04-06T08:40:05.762Z,11.90
2019-04-06T08:42:06.898Z,12.10
2019-04-06T08:44:08.386Z,12.10
2019-04-06T08:46:09.536Z,12.30
2019-04-06T08:48:11.111Z,12.30
2019-04-06T08:50:13.041Z,12.40
2019-04-06T08:52:14.322Z,12.50
2019-04-06T08:54:15.509Z,12.60
2019-04-06T08:56:16.666Z,12.70
2019-04-06T08:58:17.903Z,12.80
2019-04-06T09:00:19.149Z,12.90
2019-04-06T09:02:20.291Z,12.90
2019-04-06T09:04:21.682Z,13.00
2019-04-06T09:06:23.099Z,13.10
2019-04-06T09:08:24.782Z,13.10
2019-04-06T09:10:25.925Z,13.20
2019-04-06T09:12:27.418Z,13.30
2019-04-06T09:14:28.573Z,13.50
2019-04-06T09:16:29.731Z,13.60
2019-04-06T09:18:30.930Z,13.60
2019-04-06T09:20:32.066Z,13.70
2019-04-06T09:22:33.305Z,13.70
2019-04-06T09:24:34.546Z,13.80
2019-04-06T09:26:35.781Z,13.90
2019-04-06T09:28:36.991Z,13.90
2019-04-06T09:30:38.324Z,13.90
2019-04-06T09:32:39.518Z,13.80
2019-04-06T09:34:40.690Z,13.90
2019-04-06T09:36:41.902Z,14.00
2019-04-06T09:38:43.033Z,14.00
2019-04-06T09:40:44.489Z,13.90
2019-04-06T09:42:45.679Z,13.90
2019-04-06T09:44:48.860Z,13.90
2019-04-06T09:47:00.909Z,13.90
2019-04-06T09:49:11.099Z,13.90
2019-04-06T09:51:14.299Z,13.90
2019-04-06T09:53:20.279Z,14.00
2019-04-06T09:55:39.864Z,14.10
2019-04-06T09:57:59.866Z,14.20
2019-04-06T10:00:09.533Z,14.40
2019-04-06T10:02:24.679Z,14.60
2019-04-06T10:04:44.235Z,14.60
2019-04-06T10:07:04.153Z,14.70
2019-04-06T10:09:17.635Z,14.90
2019-04-06T10:11:20.774Z,15.00
2019-04-06T10:13:29.751Z,15.00
2019-04-06T10:15:32.898Z,15.10
2019-04-06T10:17:47.798Z,15.20
2019-04-06T10:19:51.221Z,15.30
2019-04-06T10:22:05.160Z,15.30
2019-04-06T10:24:08.267Z,15.50
2019-04-06T10:26:14.077Z,15.60
2019-04-06T10:28:32.021Z,15.80
2019-04-06T10:30:50.261Z,15.90
2019-04-06T10:33:08.603Z,16.00
2019-04-06T10:35:12.038Z,16.10
2019-04-06T10:37:15.589Z,16.10
2019-04-06T10:39:35.329Z,16.20
2019-04-06T10:41:39.067Z,16.40
2019-04-06T10:43:45.151Z,16.50
2019-04-06T10:46:00.350Z,16.60
2019-04-06T10:48:12.314Z,16.80
2019-04-06T10:50:15.350Z,16.90
2019-04-06T10:52:18.406Z,16.90
2019-04-06T10:54:27.536Z,16.90
2019-04-06T10:56:31.114Z,17.10
2019-04-06T10:58:37.226Z,17.20
2019-04-06T11:00:46.114Z,17.30
2019-04-06T11:03:02.014Z,17.40
2019-04-06T11:05:12.431Z,17.50
2019-04-06T11:07:33.888Z,17.50
2019-04-06T11:09:37.241Z,17.60
2019-04-06T11:11:40.517Z,17.60
2019-04-06T11:14:02.397Z,17.70
2019-04-06T11:16:05.703Z,17.80
2019-04-06T11:18:21.017Z,18.10
2019-04-06T11:20:41.116Z,18.40
2019-04-06T11:22:44.639Z,18.60
2019-04-06T11:24:47.915Z,18.80
2019-04-06T11:27:05.158Z,19.00
2019-04-06T11:29:20.490Z,19.20
2019-04-06T11:31:23.777Z,19.30
2019-04-06T11:33:39.186Z,19.40
2019-04-06T11:35:45.529Z,19.60
2019-04-06T11:38:00.418Z,19.80
2019-04-06T11:40:22.308Z,19.90
2019-04-06T11:42:42.065Z,20.00
2019-04-06T11:44:48.156Z,20.30
2019-04-06T11:47:03.399Z,20.40
2019-04-06T11:49:09.335Z,20.50
2019-04-06T11:51:28.871Z,20.60
2019-04-06T11:53:31.983Z,20.80
2019-04-06T11:55:44.860Z,21.00
2019-04-06T11:57:54.488Z,21.10
2019-04-06T11:59:57.715Z,21.30
2019-04-06T12:02:10.072Z,21.40
2019-04-06T12:04:19.545Z,21.50
2019-04-06T12:06:31.489Z,21.60
2019-04-06T12:08:50.942Z,21.60
2019-04-06T12:10:59.799Z,21.80
2019-04-06T12:13:05.561Z,22.00
2019-04-06T12:15:08.517Z,22.10
2019-04-06T12:17:17.512Z,22.20
2019-04-06T12:19:20.939Z,22.30
2019-04-06T12:21:33.238Z,22.50
2019-04-06T12:23:36.303Z,22.60
2019-04-06T12:25:53.225Z,22.80
2019-04-06T12:27:56.503Z,23.00
2019-04-06T12:29:59.745Z,23.00
2019-04-06T12:32:15.460Z,23.10
2019-04-06T12:34:18.507Z,23.20
2019-04-06T12:36:39.553Z,23.40
2019-04-06T12:38:42.628Z,23.40
2019-04-06T12:41:02.188Z,23.60
2019-04-06T12:43:22.135Z,23.70
2019-04-06T12:45:42.167Z,23.80
2019-04-06T12:48:00.648Z,24.10
2019-04-06T12:50:04.306Z,24.20
2019-04-06T12:52:09.912Z,24.40
2019-04-06T12:54:12.984Z,24.60
2019-04-06T12:56:16.304Z,24.80
2019-04-06T12:58:36.338Z,25.00
2019-04-06T13:00:54.597Z,25.10
2019-04-06T13:03:12.789Z,25.30
2019-04-06T13:05:18.999Z,25.40
2019-04-06T13:07:22.118Z,25.50
2019-04-06T13:09:28.481Z,25.60
2019-04-06T13:11:37.649Z,25.70
2019-04-06T13:13:43.657Z,25.70
2019-04-06T13:15:55.332Z,25.70
2019-04-06T13:18:01.015Z,25.70
2019-04-06T13:20:06.573Z,25.90
2019-04-06T13:22:26.606Z,26.20
2019-04-06T13:24:29.667Z,26.30
2019-04-06T13:26:49.117Z,26.30
2019-04-06T13:29:04.239Z,26.40
2019-04-06T13:31:13.241Z,26.40
2019-04-06T13:33:19.351Z,26.30
2019-04-06T13:35:28.618Z,26.50
2019-04-06T13:37:48.733Z,26.40
2019-04-06T13:39:52.151Z,26.60
2019-04-06T13:41:58.141Z,26.70
2019-04-06T13:44:18.657Z,26.70
2019-04-06T13:46:24.958Z,26.80
2019-04-06T13:48:44.616Z,27.00
2019-04-06T13:51:04.713Z,27.20
2019-04-06T13:53:17.232Z,27.40
2019-04-06T13:55:32.232Z,27.50
2019-04-06T13:57:38.288Z,27.60
2019-04-06T13:59:58.403Z,27.70
2019-04-06T14:02:07.239Z,27.70
2019-04-06T14:04:13.496Z,27.60
2019-04-06T14:06:22.768Z,27.60
2019-04-06T14:08:31.808Z,27.70
2019-04-06T14:10:49.989Z,27.80
2019-04-06T14:13:10.006Z,27.90
2019-04-06T14:15:22.160Z,27.70
2019-04-06T14:17:25.765Z,27.90
2019-04-06T14:19:32.942Z,28.00
2019-04-06T14:21:42.115Z,28.00
2019-04-06T14:23:51.026Z,27.90
2019-04-06T14:25:54.565Z,28.00
2019-04-06T14:27:57.797Z,28.20
2019-04-06T14:30:17.228Z,28.30
2019-04-06T14:32:27.150Z,28.30
2019-04-06T14:34:35.893Z,28.20
2019-04-06T14:36:54.054Z,28.40
2019-04-06T14:39:06.458Z,28.30
2019-04-06T14:41:25.150Z,28.50
2019-04-06T14:43:40.264Z,28.50
2019-04-06T14:45:58.746Z,28.50
2019-04-06T14:48:04.711Z,28.70
2019-04-06T14:50:14.093Z,28.80
2019-04-06T14:52:34.374Z,28.90
2019-04-06T14:54:37.963Z,28.90
2019-04-06T14:56:41.123Z,29.00
2019-04-06T14:59:02.560Z,29.00
2019-04-06T15:01:11.954Z,29.00
2019-04-06T15:03:32.403Z,28.90
2019-04-06T15:05:41.936Z,28.70
2019-04-06T15:08:02.331Z,28.70
2019-04-06T15:10:06.928Z,28.70
2019-04-06T15:12:13.456Z,28.50
2019-04-06T15:14:33.742Z,28.30
2019-04-06T15:16:37.076Z,28.40
2019-04-06T15:18:43.426Z,28.20
2019-04-06T15:20:52.808Z,28.10
2019-04-06T15:22:56.640Z,28.20
2019-04-06T15:25:00.279Z,28.40
2019-04-06T15:27:20.488Z,28.50
2019-04-06T15:29:33.197Z,28.50
2019-04-06T15:31:47.445Z,28.20
2019-04-06T15:33:44.815Z,27.50
2019-04-06T15:36:04.901Z,27.50
2019-04-06T15:38:13.777Z,27.50
2019-04-06T15:40:17.174Z,27.40
2019-04-06T15:42:20.608Z,27.60
2019-04-06T15:44:29.434Z,27.50
2019-04-06T15:46:35.664Z,27.20
2019-04-06T15:48:47.620Z,26.70
2019-04-06T15:50:59.725Z,26.50
2019-04-06T15:53:06.067Z,26.80
2019-04-06T15:55:09.724Z,26.50
2019-04-06T15:57:15.565Z,26.60
2019-04-06T15:59:20.236Z,26.60
2019-04-06T16:01:32.872Z,26.70
2019-04-06T16:03:39.445Z,26.70
2019-04-06T16:05:42.629Z,26.60
2019-04-06T16:07:46.058Z,26.40
2019-04-06T16:10:07.469Z,26.50
2019-04-06T16:12:13.455Z,26.60
2019-04-06T16:14:16.673Z,26.00
2019-04-06T16:16:22.557Z,25.50
2019-04-06T16:18:25.778Z,25.30
2019-04-06T16:20:28.937Z,25.20
2019-04-06T16:22:44.365Z,25.40
2019-04-06T16:25:05.520Z,25.40
2019-04-06T16:27:23.460Z,25.30
2019-04-06T16:29:44.948Z,25.40
2019-04-06T16:32:11.587Z,25.60
2019-04-06T16:34:15.927Z,25.60
2019-04-06T16:36:36.055Z,25.30
2019-04-06T16:38:51.683Z,25.30
2019-04-06T16:40:54.751Z,25.10
2019-04-06T16:43:04.017Z,25.10
2019-04-06T16:45:07.498Z,24.80
2019-04-06T16:47:10.448Z,24.80
2019-04-06T16:49:31.417Z,24.70
2019-04-06T16:51:40.909Z,24.70
2019-04-06T16:53:49.956Z,24.80
2019-04-06T16:56:05.010Z,24.60
2019-04-06T16:58:27.243Z,24.20
2019-04-06T17:00:30.412Z,24.00
2019-04-06T17:02:48.410Z,23.60
2019-04-06T17:05:02.174Z,23.40
2019-04-06T17:07:07.782Z,23.30
2019-04-06T17:09:10.920Z,22.90
2019-04-06T17:11:19.867Z,22.50
2019-04-06T17:13:23.520Z,22.50
2019-04-06T17:15:36.273Z,22.30
2019-04-06T17:17:56.077Z,22.20
2019-04-06T17:19:59.515Z,22.00
2019-04-06T17:22:05.543Z,21.50
2019-04-06T17:24:17.484Z,21.50
2019-04-06T17:26:37.261Z,21.50
2019-04-06T17:28:40.411Z,21.30
2019-04-06T17:30:43.752Z,21.10
2019-04-06T17:32:47.119Z,21.10
2019-04-06T17:35:05.216Z,21.00
2019-04-06T17:37:23.663Z,20.80
2019-04-06T17:39:29.813Z,20.80
2019-04-06T17:41:33.220Z,20.70
2019-04-06T17:43:51.711Z,20.60
2019-04-06T17:45:54.774Z,20.50
2019-04-06T17:48:07.116Z,20.30
2019-04-06T17:50:16.550Z,20.00
2019-04-06T17:52:31.695Z,20.10
2019-04-06T17:54:34.875Z,19.90
2019-04-06T17:56:38.105Z,19.90
2019-04-06T17:58:53.613Z,19.80
2019-04-06T18:01:02.239Z,19.60
2019-04-06T18:03:08.020Z,19.60
2019-04-06T18:05:11.318Z,19.60
2019-04-06T18:07:14.423Z,19.20
2019-04-06T18:09:27.019Z,19.00
2019-04-06T18:11:30.115Z,18.90
2019-04-06T18:13:33.203Z,18.80
2019-04-06T18:15:34.632Z,18.70
2019-04-06T18:17:37.217Z,18.50
2019-04-06T18:19:38.415Z,18.30
2019-04-06T18:21:39.822Z,18.40
2019-04-06T18:23:41.974Z,18.10
2019-04-06T18:25:45.919Z,18.10
2019-04-06T18:27:47.199Z,17.90
2019-04-06T18:29:49.235Z,17.90
2019-04-06T18:31:55.023Z,18.20
2019-04-06T18:33:56.182Z,18.10
2019-04-06T18:35:57.431Z,18.00
2019-04-06T18:38:02.134Z,17.90
2019-04-06T18:40:08.119Z,18.00
2019-04-06T18:42:09.615Z,18.10
2019-04-06T18:44:11.825Z,17.90
2019-04-06T18:46:15.402Z,17.90
2019-04-06T18:48:20.974Z,17.90
2019-04-06T18:50:34.407Z,18.00
2019-04-06T18:52:28.807Z,17.90
2019-04-06T18:54:30.239Z,17.80
2019-04-06T18:56:31.570Z,17.70
2019-04-06T18:58:33.253Z,17.60
2019-04-06T19:00:34.641Z,17.60
2019-04-06T19:02:36.063Z,17.50
2019-04-06T19:04:37.674Z,17.40
2019-04-06T19:06:39.545Z,17.30
2019-04-06T19:08:40.856Z,17.20
2019-04-06T19:10:43.468Z,17.10
2019-04-06T19:12:44.775Z,17.10
2019-04-06T19:14:46.415Z,17.00
2019-04-06T19:16:47.888Z,16.90
2019-04-06T19:18:49.422Z,16.80
2019-04-06T19:20:50.514Z,16.60
2019-04-06T19:22:51.677Z,16.40
2019-04-06T19:24:52.828Z,16.30
2019-04-06T19:26:54.192Z,16.50
2019-04-06T19:28:55.721Z,16.50
2019-04-06T19:30:57.632Z,16.50
2019-04-06T19:32:58.939Z,16.50
2019-04-06T19:35:01.135Z,16.40
2019-04-06T19:37:02.848Z,16.10
2019-04-06T19:39:07.978Z,15.70
2019-04-06T19:41:09.287Z,15.70
2019-04-06T19:43:10.514Z,15.50
2019-04-06T19:45:12.027Z,15.30
2019-04-06T19:47:13.206Z,15.30
2019-04-06T19:49:14.442Z,15.40
2019-04-06T19:51:15.983Z,15.50
2019-04-06T19:53:17.770Z,15.30
2019-04-06T19:55:19.126Z,15.00
2019-04-06T19:57:20.922Z,15.20
2019-04-06T19:59:22.896Z,15.10
2019-04-06T20:01:24.265Z,15.10
2019-04-06T20:03:34.729Z,15.20
2019-04-06T20:05:29.512Z,14.90
2019-04-06T20:07:31.562Z,15.00
2019-04-06T20:09:32.722Z,15.10
2019-04-06T20:11:34.742Z,15.20
2019-04-06T20:13:35.998Z,15.20
2019-04-06T20:15:37.213Z,15.20
2019-04-06T20:17:39.001Z,15.10
2019-04-06T20:19:40.659Z,15.00
2019-04-06T20:21:42.048Z,15.00
2019-04-06T20:23:43.334Z,14.90
2019-04-06T20:25:44.495Z,14.80
2019-04-06T20:27:46.356Z,14.70
2019-04-06T20:29:47.616Z,14.60
2019-04-06T20:31:48.762Z,14.60
2019-04-06T20:33:52.316Z,14.50
2019-04-06T20:35:53.213Z,14.40
2019-04-06T20:37:54.548Z,14.20
2019-04-06T20:39:55.822Z,13.90
2019-04-06T20:41:57.486Z,14.00
2019-04-06T20:43:58.610Z,14.00
2019-04-06T20:46:00.077Z,14.00
2019-04-06T20:48:01.267Z,13.90
2019-04-06T20:50:04.959Z,13.90
2019-04-06T20:52:06.112Z,13.80
2019-04-06T20:54:07.495Z,13.90
2019-04-06T20:56:08.839Z,13.80
2019-04-06T20:58:10.447Z,13.70
2019-04-06T21:00:12.545Z,13.30
2019-04-06T21:02:13.917Z,13.30
2019-04-06T21:04:15.581Z,13.50
2019-04-06T21:06:17.279Z,13.50
2019-04-06T21:08:18.824Z,13.50
2019-04-06T21:10:20.187Z,13.60
2019-04-06T21:12:21.326Z,13.70
2019-04-06T21:14:22.487Z,13.70
2019-04-06T21:18:36.745Z,13.60
2019-04-06T21:20:38.046Z,13.60
2019-04-06T21:22:39.642Z,13.50
2019-04-06T21:24:41.262Z,13.60
2019-04-06T21:26:42.404Z,13.70
2019-04-06T21:28:43.832Z,13.70
2019-04-06T21:30:45.030Z,13.60
2019-04-06T21:32:46.392Z,13.60
2019-04-06T21:34:48.321Z,13.50
2019-04-06T21:36:49.724Z,13.40
2019-04-06T21:38:51.201Z,13.40
2019-04-06T21:40:53.412Z,13.30
2019-04-06T21:42:54.690Z,13.20
2019-04-06T21:44:56.290Z,13.20
2019-04-06T21:46:57.515Z,13.10
2019-04-06T21:48:58.963Z,13.00
2019-04-06T21:51:00.145Z,13.10
2019-04-06T21:53:01.357Z,13.00
2019-04-06T21:55:05.003Z,12.90
2019-04-06T21:57:06.246Z,12.80
2019-04-06T21:59:07.831Z,12.80
2019-04-06T22:01:10.548Z,12.80
2019-04-06T22:03:12.139Z,12.70
2019-04-06T22:05:13.737Z,12.60
2019-04-06T22:07:15.070Z,12.60
2019-04-06T22:09:16.401Z,12.50
2019-04-06T22:11:17.671Z,12.40
2019-04-06T22:13:19.484Z,12.40
2019-04-06T22:15:21.527Z,12.40
2019-04-06T22:17:23.267Z,12.40
2019-04-06T22:19:24.790Z,12.40
2019-04-06T22:21:27.073Z,12.40
2019-04-06T22:23:39.709Z,12.30
2019-04-06T22:25:31.453Z,12.20
2019-04-06T22:27:32.584Z,12.20
2019-04-06T22:29:34.268Z,12.20
2019-04-06T22:31:35.899Z,12.00
2019-04-06T22:33:38.189Z,11.80
2019-04-06T22:35:39.764Z,11.90
2019-04-06T22:37:40.911Z,11.70
2019-04-06T22:39:42.462Z,11.70
2019-04-06T22:41:44.010Z,11.90
2019-04-06T22:43:45.690Z,11.90
2019-04-06T22:45:47.088Z,12.00
2019-04-06T22:47:48.250Z,12.00
2019-04-06T22:49:49.826Z,12.00
2019-04-06T22:51:51.601Z,11.90
2019-04-06T22:53:52.973Z,11.90
2019-04-06T22:55:54.126Z,11.80
2019-04-06T22:57:55.690Z,11.70
2019-04-06T22:59:57.283Z,11.70
2019-04-06T23:01:58.693Z,11.70
2019-04-06T23:04:07.643Z,11.60
2019-04-06T23:06:28.906Z,11.60
2019-04-06T23:08:30.074Z,11.50
2019-04-06T23:10:31.735Z,11.40
2019-04-06T23:12:32.856Z,11.40
2019-04-06T23:14:33.997Z,11.30
2019-04-06T23:16:35.171Z,11.20
2019-04-06T23:18:36.718Z,11.20
2019-04-06T23:20:37.857Z,11.20
2019-04-06T23:22:39.013Z,11.10
2019-04-06T23:24:40.806Z,11.20
2019-04-06T23:26:42.462Z,11.20
2019-04-06T23:28:44.512Z,11.10
2019-04-06T23:30:45.901Z,11.00
2019-04-06T23:32:47.154Z,11.10
2019-04-06T23:34:57.818Z,11.10
2019-04-06T23:36:51.380Z,11.00
2019-04-06T23:38:52.518Z,11.00
2019-04-06T23:40:53.672Z,11.00
2019-04-06T23:42:54.946Z,11.00
2019-04-06T23:44:56.781Z,11.00
2019-04-06T23:46:58.763Z,10.90
2019-04-06T23:49:02.419Z,10.80
2019-04-06T23:51:03.542Z,10.80
2019-04-06T23:53:04.668Z,10.80
2019-04-06T23:55:07.029Z,10.80
2019-04-06T23:57:08.281Z,10.70
2019-04-06T23:59:09.678Z,10.60
